createdAt,value
2022-09-28T00:01:55.389Z,6.02
2022-09-28T00:04:23.181Z,5.94
2022-09-28T00:06:49.483Z,5.90
2022-09-28T00:09:16.734Z,5.86
2022-09-28T00:11:46.042Z,5.83
2022-09-28T00:14:16.196Z,5.79
2022-09-28T00:16:43.972Z,5.76
2022-09-28T00:19:11.779Z,5.77
2022-09-28T00:21:40.572Z,5.73
2022-09-28T00:24:13.184Z,5.69
2022-09-28T00:26:41.056Z,5.65
2022-09-28T00:29:16.105Z,5.63
2022-09-28T00:31:42.897Z,5.58
2022-09-28T00:34:09.371Z,5.53
2022-09-28T00:36:35.752Z,5.53
2022-09-28T00:39:08.077Z,5.48
2022-09-28T00:41:34.970Z,5.48
2022-09-28T00:44:31.225Z,5.51
2022-09-28T00:47:37.948Z,5.47
2022-09-28T00:50:14.625Z,5.40
2022-09-28T00:52:50.314Z,5.42
2022-09-28T00:55:21.777Z,5.41
2022-09-28T00:57:55.828Z,5.33
2022-09-28T01:00:22.220Z,5.36
2022-09-28T01:02:48.989Z,5.34
2022-09-28T01:08:04.240Z,5.24
2022-09-28T01:10:31.432Z,5.23
2022-09-28T01:12:59.175Z,5.24
2022-09-28T01:15:27.935Z,5.27
2022-09-28T01:18:11.609Z,5.34
2022-09-28T01:20:52.778Z,5.42
2022-09-28T01:23:28.983Z,5.45
2022-09-28T01:26:29.320Z,5.48
2022-09-28T01:29:05.511Z,5.64
2022-09-28T01:31:36.246Z,5.73
2022-09-28T01:34:14.812Z,5.77
2022-09-28T01:36:50.550Z,5.85
2022-09-28T01:39:39.975Z,5.92
2022-09-28T01:42:11.904Z,5.93
2022-09-28T01:44:43.305Z,5.96
2022-09-28T01:47:14.356Z,5.95
2022-09-28T01:49:50.602Z,5.90
2022-09-28T01:52:27.791Z,5.85
2022-09-28T01:55:09.481Z,5.78
2022-09-28T01:57:46.612Z,5.80
2022-09-28T02:00:15.600Z,5.73
2022-09-28T02:03:39.031Z,5.61
2022-09-28T02:06:24.706Z,5.48
2022-09-28T02:08:59.985Z,5.47
2022-09-28T02:11:26.418Z,5.47
2022-09-28T02:14:06.769Z,5.56
2022-09-28T02:16:44.878Z,5.52
2022-09-28T02:19:19.041Z,5.47
2022-09-28T02:22:01.102Z,5.47
2022-09-28T02:24:35.814Z,5.49
2022-09-28T02:27:12.531Z,5.45
2022-09-28T02:29:38.869Z,5.43
2022-09-28T02:32:05.483Z,5.47
2022-09-28T02:34:32.851Z,5.49
2022-09-28T02:37:00.689Z,5.51
2022-09-28T02:39:27.160Z,5.52
2022-09-28T02:42:07.864Z,5.49
2022-09-28T02:44:53.570Z,5.45
2022-09-28T02:47:44.165Z,5.42
2022-09-28T02:50:34.898Z,5.37
2022-09-28T02:53:14.429Z,5.33
2022-09-28T02:56:19.915Z,5.33
2022-09-28T02:58:55.289Z,5.34
2022-09-28T03:01:40.387Z,5.41
2022-09-28T03:04:26.227Z,5.48
2022-09-28T03:07:06.027Z,5.48
2022-09-28T03:09:44.556Z,5.43
2022-09-28T03:12:14.913Z,5.43
2022-09-28T03:14:41.348Z,5.41
2022-09-28T03:17:07.714Z,5.37
2022-09-28T03:19:34.500Z,5.31
2022-09-28T03:22:01.667Z,5.30
2022-09-28T03:24:28.029Z,5.25
2022-09-28T03:26:54.598Z,5.19
2022-09-28T03:29:20.930Z,5.13
2022-09-28T03:31:47.862Z,5.09
2022-09-28T03:34:14.387Z,5.02
2022-09-28T03:36:40.681Z,4.99
2022-09-28T03:39:07.014Z,4.92
2022-09-28T03:41:34.788Z,4.95
2022-09-28T03:44:01.235Z,4.99
2022-09-28T03:46:27.560Z,5.01
2022-09-28T03:48:57.412Z,5.02
2022-09-28T03:51:23.778Z,5.02
2022-09-28T03:53:50.088Z,5.00
2022-09-28T03:56:17.332Z,5.03
2022-09-28T03:58:43.679Z,5.04
2022-09-28T04:01:16.843Z,4.98
2022-09-28T04:03:44.685Z,4.99
2022-09-28T04:06:11.555Z,4.95
2022-09-28T04:08:38.376Z,4.91
2022-09-28T04:11:04.834Z,4.83
2022-09-28T04:13:31.766Z,4.70
2022-09-28T04:16:00.250Z,4.64
2022-09-28T04:18:26.880Z,4.61
2022-09-28T04:21:06.534Z,4.59
2022-09-28T04:23:34.591Z,4.60
2022-09-28T04:26:01.454Z,4.56
2022-09-28T04:28:46.206Z,4.47
2022-09-28T04:31:16.459Z,4.41
2022-09-28T04:33:42.966Z,4.41
2022-09-28T04:36:10.910Z,4.33
2022-09-28T04:38:52.237Z,4.25
2022-09-28T04:41:19.215Z,4.19
2022-09-28T04:43:49.499Z,4.12
2022-09-28T04:46:15.949Z,4.08
2022-09-28T04:48:42.378Z,4.04
2022-09-28T04:51:08.776Z,4.03
2022-09-28T04:53:35.411Z,4.02
2022-09-28T04:56:03.263Z,4.05
2022-09-28T04:58:30.595Z,4.04
2022-09-28T05:01:00.043Z,3.97
2022-09-28T05:03:27.416Z,3.95
2022-09-28T05:05:53.827Z,3.94
2022-09-28T05:08:20.258Z,3.92
2022-09-28T05:10:46.646Z,3.88
2022-09-28T05:13:13.959Z,3.82
2022-09-28T05:15:42.239Z,3.78
2022-09-28T05:18:08.846Z,3.67
2022-09-28T05:20:42.033Z,3.67
2022-09-28T05:23:12.663Z,3.73
2022-09-28T05:25:39.895Z,3.73
2022-09-28T05:28:07.067Z,3.70
2022-09-28T05:30:34.736Z,3.73
2022-09-28T05:33:01.367Z,3.79
2022-09-28T05:35:27.906Z,3.82
2022-09-28T05:37:54.889Z,3.89
2022-09-28T05:40:21.448Z,3.89
2022-09-28T05:42:48.157Z,3.95
2022-09-28T05:45:15.015Z,4.01
2022-09-28T05:47:43.492Z,4.08
2022-09-28T05:50:11.883Z,4.16
2022-09-28T05:52:38.771Z,4.21
2022-09-28T05:55:06.747Z,4.27
2022-09-28T05:57:33.350Z,4.28
2022-09-28T05:59:59.991Z,4.21
2022-09-28T06:02:26.411Z,4.16
2022-09-28T06:04:53.769Z,4.19
2022-09-28T06:07:21.879Z,4.26
2022-09-28T06:09:48.204Z,4.32
2022-09-28T06:12:15.939Z,4.38
2022-09-28T06:14:42.306Z,4.40
2022-09-28T06:17:08.693Z,4.42
2022-09-28T06:19:35.057Z,4.47
2022-09-28T06:22:01.354Z,4.53
2022-09-28T06:24:27.751Z,4.62
2022-09-28T06:26:54.120Z,4.68
2022-09-28T06:29:20.559Z,4.74
2022-09-28T06:31:47.237Z,4.81
2022-09-28T06:34:15.013Z,4.86
2022-09-28T06:36:41.422Z,4.86
2022-09-28T06:39:07.931Z,4.82
2022-09-28T06:41:34.356Z,4.81
2022-09-28T06:44:01.952Z,4.88
2022-09-28T06:46:28.284Z,4.98
2022-09-28T06:48:54.985Z,5.04
2022-09-28T06:51:21.778Z,5.12
2022-09-28T06:53:48.164Z,5.21
2022-09-28T06:56:14.531Z,5.38
2022-09-28T06:58:40.878Z,5.56
2022-09-28T07:01:07.254Z,5.67
2022-09-28T07:03:33.638Z,5.87
2022-09-28T07:06:00.030Z,6.06
2022-09-28T07:08:26.463Z,6.25
2022-09-28T07:10:56.823Z,6.49
2022-09-28T07:16:15.082Z,7.05
2022-09-28T07:18:42.184Z,7.32
2022-09-28T07:21:12.367Z,7.61
2022-09-28T07:23:53.504Z,8.06
2022-09-28T07:26:23.868Z,8.38
2022-09-28T07:28:50.831Z,8.66
2022-09-28T07:31:17.307Z,9.05
2022-09-28T07:33:43.640Z,9.59
2022-09-28T07:36:10.614Z,9.85
2022-09-28T07:38:38.157Z,10.73
2022-09-28T07:41:14.760Z,12.55
2022-09-28T07:43:41.595Z,14.00
2022-09-28T07:46:12.172Z,14.93
2022-09-28T07:48:40.944Z,15.72
2022-09-28T07:51:08.158Z,16.32
2022-09-28T07:53:34.859Z,16.34
2022-09-28T07:56:13.942Z,16.66
2022-09-28T07:58:41.098Z,16.93
2022-09-28T08:01:10.495Z,16.92
2022-09-28T08:03:37.817Z,16.95
2022-09-28T08:06:07.449Z,17.22
2022-09-28T08:08:35.629Z,17.23
2022-09-28T08:11:02.612Z,17.23
2022-09-28T08:13:29.489Z,17.83
2022-09-28T08:16:00.766Z,17.54
2022-09-28T08:18:27.110Z,17.81
2022-09-28T08:21:14.141Z,17.64
2022-09-28T08:23:40.839Z,17.54
2022-09-28T08:26:09.323Z,17.77
2022-09-28T08:28:39.224Z,18.34
2022-09-28T08:31:07.276Z,18.63
2022-09-28T08:33:34.521Z,18.76
2022-09-28T08:36:02.391Z,18.68
2022-09-28T08:38:30.924Z,18.17
2022-09-28T08:41:15.481Z,18.64
2022-09-28T08:43:54.141Z,18.95
2022-09-28T08:46:27.024Z,19.09
2022-09-28T08:49:23.822Z,19.12
2022-09-28T08:51:54.940Z,18.91
2022-09-28T08:54:31.669Z,19.19
2022-09-28T08:57:06.779Z,19.80
2022-09-28T08:59:54.107Z,19.33
2022-09-28T09:02:29.143Z,19.63
2022-09-28T09:04:57.020Z,20.19
2022-09-28T09:07:56.835Z,20.60
2022-09-28T09:10:44.451Z,20.69
2022-09-28T09:13:23.491Z,20.71
2022-09-28T09:16:00.904Z,20.90
2022-09-28T09:18:52.710Z,21.08
2022-09-28T09:21:25.093Z,20.88
2022-09-28T09:24:03.834Z,21.02
2022-09-28T09:26:39.079Z,18.91
2022-09-28T09:29:32.515Z,20.09
2022-09-28T09:32:13.155Z,18.52
2022-09-28T09:34:53.006Z,19.85
2022-09-28T09:37:25.328Z,20.83
2022-09-28T09:40:00.588Z,21.17
2022-09-28T09:42:36.856Z,21.68
2022-09-28T09:45:16.397Z,20.98
2022-09-28T09:47:58.990Z,20.57
2022-09-28T09:50:30.763Z,20.08
2022-09-28T09:53:14.917Z,19.22
2022-09-28T09:55:54.740Z,17.54
2022-09-28T09:58:34.286Z,20.08
2022-09-28T10:01:14.423Z,19.63
2022-09-28T10:03:44.450Z,18.69
2022-09-28T10:06:25.046Z,20.82
2022-09-28T10:09:16.633Z,22.33
2022-09-28T10:11:46.087Z,23.63
2022-09-28T10:14:21.435Z,24.21
2022-09-28T10:16:50.830Z,24.22
2022-09-28T10:19:20.833Z,23.54
2022-09-28T10:21:52.734Z,22.85
2022-09-28T10:24:35.545Z,18.80
2022-09-28T10:27:18.067Z,19.40
2022-09-28T10:29:55.384Z,18.33
2022-09-28T10:32:26.679Z,17.12
2022-09-28T10:35:10.790Z,18.59
2022-09-28T10:37:48.238Z,21.42
2022-09-28T10:40:50.292Z,23.29
2022-09-28T10:43:38.351Z,23.76
2022-09-28T10:46:10.389Z,23.00
2022-09-28T10:48:45.723Z,19.65
2022-09-28T10:51:12.063Z,17.78
2022-09-28T10:53:39.573Z,16.53
2022-09-28T10:56:18.744Z,15.93
2022-09-28T10:58:45.679Z,15.60
2022-09-28T11:01:14.924Z,19.47
2022-09-28T11:04:03.528Z,22.35
2022-09-28T11:06:37.974Z,23.77
2022-09-28T11:09:18.549Z,24.85
2022-09-28T11:11:45.062Z,24.71
2022-09-28T11:14:39.583Z,21.40
2022-09-28T11:17:32.461Z,18.82
2022-09-28T11:20:26.119Z,23.17
2022-09-28T11:22:58.718Z,25.24
2022-09-28T11:25:26.744Z,26.14
2022-09-28T11:27:53.008Z,27.29
2022-09-28T11:30:34.081Z,27.64
2022-09-28T11:33:10.460Z,27.00
2022-09-28T11:35:50.471Z,26.55
2022-09-28T11:38:35.652Z,26.72
2022-09-28T11:41:23.560Z,26.90
2022-09-28T11:44:29.466Z,27.21
2022-09-28T11:47:33.590Z,27.51
2022-09-28T11:50:23.548Z,24.79
2022-09-28T11:53:02.796Z,20.60
2022-09-28T11:55:35.921Z,18.29
2022-09-28T11:58:12.407Z,17.04
2022-09-28T12:00:45.866Z,16.17
2022-09-28T12:03:24.843Z,15.42
2022-09-28T12:05:59.139Z,15.15
2022-09-28T12:08:32.060Z,14.91
2022-09-28T12:11:15.529Z,14.85
2022-09-28T12:13:47.926Z,14.93
2022-09-28T12:17:04.344Z,14.90
2022-09-28T12:19:29.587Z,15.19
2022-09-28T12:22:43.063Z,18.36
2022-09-28T12:25:16.041Z,17.71
2022-09-28T12:27:51.325Z,16.78
2022-09-28T12:30:21.028Z,16.07
2022-09-28T12:32:59.533Z,15.71
2022-09-28T12:35:52.155Z,15.09
2022-09-28T12:38:28.714Z,14.28
2022-09-28T12:41:19.686Z,13.43
2022-09-28T12:44:13.709Z,12.62
2022-09-28T12:47:16.951Z,11.80
2022-09-28T12:52:52.811Z,10.76
2022-09-28T12:55:37.187Z,10.52
2022-09-28T12:58:03.498Z,10.29
2022-09-28T13:00:41.019Z,10.07
2022-09-28T13:03:34.980Z,9.94
2022-09-28T13:06:17.238Z,9.81
2022-09-28T13:09:23.775Z,9.78
2022-09-28T13:12:09.866Z,9.72
2022-09-28T13:15:02.876Z,9.83
2022-09-28T13:17:55.307Z,9.90
2022-09-28T13:20:37.679Z,10.00
2022-09-28T13:23:16.357Z,10.02
2022-09-28T13:25:50.966Z,10.07
2022-09-28T13:28:21.323Z,10.17
2022-09-28T13:30:52.672Z,10.29
2022-09-28T13:33:29.271Z,10.40
2022-09-28T13:35:56.592Z,10.55
2022-09-28T13:38:22.826Z,10.70
2022-09-28T13:41:04.230Z,10.89
2022-09-28T13:43:54.993Z,11.17
2022-09-28T13:46:33.822Z,11.50
2022-09-28T13:49:19.203Z,11.74
2022-09-28T13:52:06.590Z,12.09
2022-09-28T13:54:51.219Z,12.21
2022-09-28T13:57:37.168Z,12.35
2022-09-28T14:00:23.642Z,12.64
2022-09-28T14:03:10.459Z,12.75
2022-09-28T14:05:48.127Z,12.94
2022-09-28T14:08:28.544Z,12.93
2022-09-28T14:10:57.011Z,13.00
2022-09-28T14:13:59.350Z,13.17
2022-09-28T14:16:28.491Z,13.15
2022-09-28T14:19:00.163Z,12.99
2022-09-28T14:21:40.060Z,12.54
2022-09-28T14:24:27.330Z,12.32
2022-09-28T14:27:27.031Z,12.16
2022-09-28T14:30:06.595Z,12.04
2022-09-28T14:32:37.406Z,12.03
2022-09-28T14:35:07.371Z,12.05
2022-09-28T14:37:55.935Z,12.01
2022-09-28T14:40:49.611Z,11.89
2022-09-28T14:43:36.417Z,11.73
2022-09-28T14:46:11.711Z,11.57
2022-09-28T14:48:54.023Z,11.46
2022-09-28T14:51:26.457Z,11.43
2022-09-28T14:54:00.211Z,11.33
2022-09-28T14:56:32.572Z,11.27
2022-09-28T14:59:00.069Z,11.11
2022-09-28T15:01:26.574Z,11.03
2022-09-28T15:04:01.747Z,10.97
2022-09-28T15:06:45.561Z,10.80
2022-09-28T15:09:44.079Z,10.76
2022-09-28T15:12:10.330Z,10.70
2022-09-28T15:15:04.631Z,10.71
2022-09-28T15:17:40.081Z,10.70
2022-09-28T15:20:20.151Z,10.71
2022-09-28T15:22:48.733Z,10.74
2022-09-28T15:25:27.828Z,10.70
2022-09-28T15:28:02.264Z,10.73
2022-09-28T15:30:33.348Z,10.82
2022-09-28T15:33:19.995Z,10.84
2022-09-28T15:35:59.206Z,10.89
2022-09-28T15:38:25.654Z,10.83
2022-09-28T15:40:52.150Z,10.88
2022-09-28T15:43:30.762Z,10.98
2022-09-28T15:46:17.543Z,11.03
2022-09-28T15:48:53.123Z,11.01
2022-09-28T15:51:21.277Z,10.92
2022-09-28T15:54:02.138Z,10.84
2022-09-28T15:56:29.567Z,10.76
2022-09-28T15:59:25.228Z,10.77
2022-09-28T16:02:08.056Z,10.78
2022-09-28T16:04:38.271Z,10.77
2022-09-28T16:07:10.624Z,10.79
2022-09-28T16:09:59.958Z,10.80
2022-09-28T16:12:32.427Z,10.82
2022-09-28T16:15:07.556Z,10.84
2022-09-28T16:17:35.252Z,10.79
2022-09-28T16:20:23.176Z,10.72
2022-09-28T16:22:49.994Z,10.68
2022-09-28T16:25:24.537Z,10.73
2022-09-28T16:27:53.587Z,10.65
2022-09-28T16:30:26.449Z,10.71
2022-09-28T16:33:05.506Z,10.72
2022-09-28T16:35:49.322Z,10.70
2022-09-28T16:38:17.503Z,10.69
2022-09-28T16:40:47.817Z,10.60
2022-09-28T16:43:30.854Z,10.45
2022-09-28T16:46:02.083Z,10.35
2022-09-28T16:48:31.257Z,10.24
2022-09-28T16:50:58.442Z,10.17
2022-09-28T16:53:44.424Z,10.10
2022-09-28T16:56:12.415Z,10.00
2022-09-28T16:58:39.077Z,9.88
2022-09-28T17:01:09.479Z,9.81
2022-09-28T17:03:36.129Z,9.72
2022-09-28T17:06:06.012Z,9.61
2022-09-28T17:08:35.256Z,9.53
2022-09-28T17:11:24.285Z,9.41
2022-09-28T17:13:51.675Z,9.31
2022-09-28T17:16:32.250Z,9.19
2022-09-28T17:19:18.205Z,9.09
2022-09-28T17:21:44.792Z,8.98
2022-09-28T17:24:11.255Z,8.89
2022-09-28T17:26:38.068Z,8.83
2022-09-28T17:29:08.593Z,8.75
2022-09-28T17:31:34.890Z,8.67
2022-09-28T17:34:01.219Z,8.59
2022-09-28T17:36:27.931Z,8.49
2022-09-28T17:38:54.287Z,8.41
2022-09-28T17:41:21.178Z,8.37
2022-09-28T17:43:48.069Z,8.33
2022-09-28T17:46:32.193Z,8.25
2022-09-28T17:49:00.895Z,8.17
2022-09-28T17:51:32.334Z,8.11
2022-09-28T17:54:00.831Z,8.08
2022-09-28T17:56:32.244Z,8.01
2022-09-28T17:59:05.685Z,7.95
2022-09-28T18:01:37.018Z,7.86
2022-09-28T18:04:05.137Z,7.78
2022-09-28T18:06:35.049Z,7.67
2022-09-28T18:09:04.784Z,7.61
2022-09-28T18:11:32.979Z,7.48
2022-09-28T18:13:59.502Z,7.40
2022-09-28T18:16:28.484Z,7.33
2022-09-28T18:18:54.894Z,7.27
2022-09-28T18:21:21.281Z,7.27
2022-09-28T18:23:47.592Z,7.26
2022-09-28T18:26:15.911Z,7.23
2022-09-28T18:28:42.310Z,7.15
2022-09-28T18:31:10.896Z,7.10
2022-09-28T18:33:50.026Z,7.09
2022-09-28T18:36:16.444Z,7.08
2022-09-28T18:38:42.803Z,7.05
2022-09-28T18:41:15.400Z,7.02
2022-09-28T18:43:51.596Z,6.96
2022-09-28T18:46:18.838Z,7.00
2022-09-28T18:48:46.255Z,6.98
2022-09-28T18:51:12.715Z,6.92
2022-09-28T18:53:40.062Z,6.94
2022-09-28T18:56:12.040Z,6.97
2022-09-28T18:58:39.971Z,7.01
2022-09-28T19:04:00.265Z,7.07
2022-09-28T19:06:26.981Z,7.09
2022-09-28T19:08:55.934Z,7.08
2022-09-28T19:11:23.062Z,7.07
2022-09-28T19:13:49.381Z,7.05
2022-09-28T19:16:18.055Z,7.02
2022-09-28T19:18:44.620Z,7.01
2022-09-28T19:21:12.870Z,7.03
2022-09-28T19:23:40.583Z,7.02
2022-09-28T19:26:11.333Z,6.98
2022-09-28T19:28:37.879Z,6.96
2022-09-28T19:31:08.968Z,6.96
2022-09-28T19:33:36.573Z,6.95
2022-09-28T19:36:11.170Z,6.92
2022-09-28T19:38:39.221Z,6.92
2022-09-28T19:41:39.113Z,6.93
2022-09-28T19:44:10.792Z,6.94
2022-09-28T19:46:39.926Z,6.90
2022-09-28T19:49:12.731Z,6.91
2022-09-28T19:51:51.415Z,6.99
2022-09-28T19:54:33.135Z,6.99
2022-09-28T19:57:07.565Z,6.96
2022-09-28T19:59:35.484Z,7.01
2022-09-28T20:02:02.036Z,7.01
2022-09-28T20:04:28.832Z,7.00
2022-09-28T20:06:55.272Z,7.01
2022-09-28T20:09:21.597Z,7.01
2022-09-28T20:11:48.493Z,7.00
2022-09-28T20:14:16.144Z,7.04
2022-09-28T20:16:42.505Z,7.01
2022-09-28T20:19:08.843Z,6.95
2022-09-28T20:21:35.228Z,6.93
2022-09-28T20:24:01.713Z,6.92
2022-09-28T20:26:28.418Z,6.95
2022-09-28T20:28:54.916Z,6.97
2022-09-28T20:31:23.607Z,6.96
2022-09-28T20:33:50.989Z,6.94
2022-09-28T20:36:19.875Z,6.94
2022-09-28T20:38:50.766Z,6.92
2022-09-28T20:41:18.656Z,6.89
2022-09-28T20:43:46.741Z,6.80
2022-09-28T20:46:13.956Z,6.77
2022-09-28T20:48:40.837Z,6.74
2022-09-28T20:51:11.205Z,6.72
2022-09-28T20:53:38.897Z,6.72
2022-09-28T20:56:08.529Z,6.69
2022-09-28T20:58:34.929Z,6.64
2022-09-28T21:01:10.952Z,6.56
2022-09-28T21:03:38.343Z,6.42
2022-09-28T21:06:11.459Z,6.31
2022-09-28T21:08:38.564Z,6.22
2022-09-28T21:11:06.381Z,6.16
2022-09-28T21:13:33.331Z,6.09
2022-09-28T21:16:04.050Z,6.00
2022-09-28T21:18:30.672Z,5.93
2022-09-28T21:20:56.980Z,5.89
2022-09-28T21:23:25.055Z,5.85
2022-09-28T21:26:10.182Z,5.83
2022-09-28T21:28:37.913Z,5.82
2022-09-28T21:31:06.398Z,5.87
2022-09-28T21:33:33.339Z,5.93
2022-09-28T21:36:05.845Z,6.03
2022-09-28T21:38:32.163Z,6.04
2022-09-28T21:40:59.702Z,6.00
2022-09-28T21:43:28.713Z,5.88
2022-09-28T21:45:56.290Z,5.82
2022-09-28T21:48:24.699Z,5.81
2022-09-28T21:51:04.936Z,5.75
2022-09-28T21:53:34.090Z,5.66
2022-09-28T21:56:01.156Z,5.65
2022-09-28T21:58:29.799Z,5.63
2022-09-28T22:01:05.406Z,5.60
2022-09-28T22:03:33.414Z,5.61
2022-09-28T22:05:59.725Z,5.58
2022-09-28T22:08:26.550Z,5.57
2022-09-28T22:11:06.037Z,5.48
2022-09-28T22:13:35.254Z,5.39
2022-09-28T22:16:02.115Z,5.38
2022-09-28T22:18:30.489Z,5.36
2022-09-28T22:21:01.841Z,5.33
2022-09-28T22:23:29.068Z,5.28
2022-09-28T22:26:25.599Z,5.26
2022-09-28T22:28:56.626Z,5.17
2022-09-28T22:31:26.706Z,5.07
2022-09-28T22:33:53.742Z,5.05
2022-09-28T22:36:20.140Z,5.03
2022-09-28T22:38:47.780Z,5.00
2022-09-28T22:41:16.439Z,5.03
2022-09-28T22:43:43.460Z,5.08
2022-09-28T22:46:15.167Z,5.10
2022-09-28T22:48:44.327Z,5.06
2022-09-28T22:51:10.646Z,5.03
2022-09-28T22:53:36.987Z,5.01
2022-09-28T22:56:05.528Z,5.02
2022-09-28T22:58:36.038Z,5.04
2022-09-28T23:01:29.600Z,5.05
2022-09-28T23:03:57.572Z,5.00
2022-09-28T23:06:26.480Z,4.88
2022-09-28T23:08:53.119Z,4.77
2022-09-28T23:11:19.655Z,4.73
2022-09-28T23:13:54.452Z,4.74
2022-09-28T23:16:23.329Z,4.71
2022-09-28T23:18:49.859Z,4.72
2022-09-28T23:21:19.237Z,4.73
2022-09-28T23:23:50.591Z,4.69
2022-09-28T23:26:19.608Z,4.66
2022-09-28T23:28:46.142Z,4.62
2022-09-28T23:31:16.600Z,4.59
2022-09-28T23:33:43.106Z,4.54
2022-09-28T23:36:09.750Z,4.48
2022-09-28T23:38:36.252Z,4.45
2022-09-28T23:41:02.839Z,4.38
2022-09-28T23:43:29.211Z,4.32
2022-09-28T23:45:55.541Z,4.32
2022-09-28T23:48:21.894Z,4.35
2022-09-28T23:50:48.329Z,4.35
2022-09-28T23:53:14.877Z,4.22
2022-09-28T23:55:42.526Z,4.15
2022-09-28T23:58:09.972Z,4.15
